sensor_id;sensor_type;location;lat;lon;timestamp;pressure;altitude;pressure_sealevel;temperature;humidity
48668;BME280;34453;52.198;5.004;2022-08-11T00:01:00;102506.41;;;18.82;100.00
48668;BME280;34453;52.198;5.004;2022-08-11T00:03:30;102508.72;;;18.85;100.00
48668;BME280;34453;52.198;5.004;2022-08-11T00:05:56;102510.19;;;18.79;100.00
48668;BME280;34453;52.198;5.004;2022-08-11T00:08:24;102517.00;;;18.82;100.00
48668;BME280;34453;52.198;5.004;2022-08-11T00:11:09;102509.50;;;18.77;100.00
48668;BME280;34453;52.198;5.004;2022-08-11T00:13:45;102507.28;;;18.73;100.00
48668;BME280;34453;52.198;5.004;2022-08-11T00:16:20;102503.34;;;18.77;100.00
48668;BME280;34453;52.198;5.004;2022-08-11T00:18:49;102518.41;;;18.76;100.00
48668;BME280;34453;52.198;5.004;2022-08-11T00:21:15;102520.13;;;18.77;100.00
48668;BME280;34453;52.198;5.004;2022-08-11T00:23:56;102525.41;;;18.77;100.00
48668;BME280;34453;52.198;5.004;2022-08-11T00:26:23;102519.88;;;18.71;100.00
48668;BME280;34453;52.198;5.004;2022-08-11T00:28:49;102514.56;;;18.71;100.00
48668;BME280;34453;52.198;5.004;2022-08-11T00:31:29;102517.38;;;18.69;100.00
48668;BME280;34453;52.198;5.004;2022-08-11T00:33:57;102508.50;;;18.60;100.00
48668;BME280;34453;52.198;5.004;2022-08-11T00:36:28;102519.66;;;18.64;
48668;BME280;34453;52.198;5.004;2022-08-11T00:39:05;102514.00;;;18.59;100.00
48668;BME280;34453;52.198;5.004;2022-08-11T00:41:54;102518.91;;;18.54;100.00
48668;BME280;34453;52.198;5.004;2022-08-11T00:47:23;102529.28;;;18.47;100.00
48668;BME280;34453;52.198;5.004;2022-08-11T00:58:31;102523.06;;;18.20;100.00
48668;BME280;34453;52.198;5.004;2022-08-11T01:01:26;102527.03;;;18.16;100.00
48668;BME280;34453;52.198;5.004;2022-08-11T01:07:07;102516.56;;;18.33;100.00
48668;BME280;34453;52.198;5.004;2022-08-11T01:10:07;102517.16;;;18.27;100.00
48668;BME280;34453;52.198;5.004;2022-08-11T01:13:05;102515.53;;;18.26;100.00
48668;BME280;34453;52.198;5.004;2022-08-11T01:45:52;102497.41;;;17.75;100.00
48668;BME280;34453;52.198;5.004;2022-08-11T01:48:41;102503.41;;;17.77;100.00
48668;BME280;34453;52.198;5.004;2022-08-11T01:54:16;102492.81;;;17.77;100.00
48668;BME280;34453;52.198;5.004;2022-08-11T01:59:27;102491.56;;;17.72;100.00
48668;BME280;34453;52.198;5.004;2022-08-11T02:05:19;102493.00;;;17.66;100.00
48668;BME280;34453;52.198;5.004;2022-08-11T02:08:10;102499.13;;;17.67;100.00
48668;BME280;34453;52.198;5.004;2022-08-11T02:10:46;102491.19;;;17.67;100.00
48668;BME280;34453;52.198;5.004;2022-08-11T02:13:49;102494.66;;;17.67;100.00
48668;BME280;34453;52.198;5.004;2022-08-11T02:16:30;102500.63;;;17.69;100.00
48668;BME280;34453;52.198;5.004;2022-08-11T02:25:16;102493.38;;;17.71;100.00
48668;BME280;34453;52.198;5.004;2022-08-11T02:27:50;102487.41;;;17.69;100.00
48668;BME280;34453;52.198;5.004;2022-08-11T02:30:23;102492.69;;;17.69;100.00
48668;BME280;34453;52.198;5.004;2022-08-11T02:32:50;102495.22;;;17.71;100.00
48668;BME280;34453;52.198;5.004;2022-08-11T02:35:43;102489.81;;;17.63;100.00
48668;BME280;34453;52.198;5.004;2022-08-11T02:38:30;102481.34;;;17.59;100.00
48668;BME280;34453;52.198;5.004;2022-08-11T02:52:30;102477.72;;;17.60;100.00
48668;BME280;34453;52.198;5.004;2022-08-11T02:57:42;102469.91;;;17.58;100.00
48668;BME280;34453;52.198;5.004;2022-08-11T03:00:10;102478.53;;;17.60;100.00
48668;BME280;34453;52.198;5.004;2022-08-11T03:05:51;102471.34;;;17.53;100.00
48668;BME280;34453;52.198;5.004;2022-08-11T03:11:30;102466.38;;;17.50;100.00
48668;BME280;34453;52.198;5.004;2022-08-11T03:14:28;102468.13;;;17.59;100.00
48668;BME280;34453;52.198;5.004;2022-08-11T03:17:29;102469.09;;;17.58;100.00
48668;BME280;34453;52.198;5.004;2022-08-11T03:23:27;102473.00;;;17.54;100.00
48668;BME280;34453;52.198;5.004;2022-08-11T03:26:31;102467.34;;;17.49;100.00
48668;BME280;34453;52.198;5.004;2022-08-11T03:29:22;102464.69;;;17.49;100.00
48668;BME280;34453;52.198;5.004;2022-08-11T03:31:59;102466.63;;;17.47;100.00
48668;BME280;34453;52.198;5.004;2022-08-11T03:34:29;102466.53;;;17.38;100.00
48668;BME280;34453;52.198;5.004;2022-08-11T03:40:29;102453.59;;;17.35;100.00
48668;BME280;34453;52.198;5.004;2022-08-11T03:46:38;102459.28;;;17.40;100.00
48668;BME280;34453;52.198;5.004;2022-08-11T03:52:10;102454.41;;;17.46;100.00
48668;BME280;34453;52.198;5.004;2022-08-11T03:54:53;102458.44;;;17.50;100.00
48668;BME280;34453;52.198;5.004;2022-08-11T04:00:23;102456.84;;;17.57;100.00
48668;BME280;34453;52.198;5.004;2022-08-11T04:11:11;102461.00;;;17.59;100.00
48668;BME280;34453;52.198;5.004;2022-08-11T04:17:16;102458.38;;;17.59;100.00
48668;BME280;34453;52.198;5.004;2022-08-11T04:29:04;102449.66;;;17.67;100.00
48668;BME280;34453;52.198;5.004;2022-08-11T04:31:59;102451.63;;;17.65;100.00
48668;BME280;34453;52.198;5.004;2022-08-11T04:34:35;102455.97;;;17.66;100.00
48668;BME280;34453;52.198;5.004;2022-08-11T04:54:38;102451.13;;;17.79;100.00
48668;BME280;34453;52.198;5.004;2022-08-11T05:01:23;102447.31;;;17.92;100.00
48668;BME280;34453;52.198;5.004;2022-08-11T05:07:56;102443.00;;;17.91;100.00
48668;BME280;34453;52.198;5.004;2022-08-11T05:13:33;102451.63;;;17.93;100.00
48668;BME280;34453;52.198;5.004;2022-08-11T05:16:23;102455.25;;;17.92;100.00
48668;BME280;34453;52.198;5.004;2022-08-11T05:19:16;102453.06;;;17.87;100.00
48668;BME280;34453;52.198;5.004;2022-08-11T05:22:02;102452.09;;;17.88;100.00
48668;BME280;34453;52.198;5.004;2022-08-11T05:24:58;102461.91;;;17.96;100.00
48668;BME280;34453;52.198;5.004;2022-08-11T05:27:49;102463.13;;;18.01;100.00
48668;BME280;34453;52.198;5.004;2022-08-11T05:30:37;102464.34;;;18.07;100.00
48668;BME280;34453;52.198;5.004;2022-08-11T05:33:33;102464.41;;;18.15;100.00
48668;BME280;34453;52.198;5.004;2022-08-11T05:36:48;102476.75;;;18.25;100.00
48668;BME280;34453;52.198;5.004;2022-08-11T05:39:17;102473.66;;;18.29;100.00
48668;BME280;34453;52.198;5.004;2022-08-11T05:42:07;102470.25;;;18.37;100.00
48668;BME280;34453;52.198;5.004;2022-08-11T05:44:54;102479.94;;;18.46;100.00
48668;BME280;34453;52.198;5.004;2022-08-11T05:47:40;102474.03;;;18.52;100.00
48668;BME280;34453;52.198;5.004;2022-08-11T05:50:25;102478.38;;;18.61;100.00
48668;BME280;34453;52.198;5.004;2022-08-11T05:53:12;102476.09;;;18.67;100.00
48668;BME280;34453;52.198;5.004;2022-08-11T05:56:06;102478.28;;;18.71;100.00
48668;BME280;34453;52.198;5.004;2022-08-11T05:58:53;102483.53;;;18.81;100.00
48668;BME280;34453;52.198;5.004;2022-08-11T06:01:25;102479.25;;;18.88;100.00
48668;BME280;34453;52.198;5.004;2022-08-11T06:03:54;102474.84;;;18.97;100.00
48668;BME280;34453;52.198;5.004;2022-08-11T06:06:58;102468.28;;;19.09;100.00
48668;BME280;34453;52.198;5.004;2022-08-11T06:09:37;102467.16;;;19.20;100.00
48668;BME280;34453;52.198;5.004;2022-08-11T06:12:07;102466.88;;;19.31;100.00
48668;BME280;34453;52.198;5.004;2022-08-11T06:14:34;102470.56;;;19.38;100.00
48668;BME280;34453;52.198;5.004;2022-08-11T06:17:06;102462.63;;;19.46;100.00
48668;BME280;34453;52.198;5.004;2022-08-11T06:19:35;102458.03;;;19.57;100.00
48668;BME280;34453;52.198;5.004;2022-08-11T06:22:04;102450.94;;;19.65;100.00
48668;BME280;34453;52.198;5.004;2022-08-11T06:24:30;102461.75;;;19.72;100.00
48668;BME280;34453;52.198;5.004;2022-08-11T06:26:57;102450.16;;;19.81;100.00
48668;BME280;34453;52.198;5.004;2022-08-11T06:29:25;102454.16;;;19.94;100.00
48668;BME280;34453;52.198;5.004;2022-08-11T06:31:58;102449.53;;;20.04;100.00
48668;BME280;34453;52.198;5.004;2022-08-11T06:37:21;102445.53;;;20.24;100.00
48668;BME280;34453;52.198;5.004;2022-08-11T06:40:04;102447.69;;;20.37;100.00
48668;BME280;34453;52.198;5.004;2022-08-11T06:47:52;102444.53;;;20.66;100.00
48668;BME280;34453;52.198;5.004;2022-08-11T06:50:19;102443.19;;;20.79;100.00
48668;BME280;34453;52.198;5.004;2022-08-11T06:53:05;102441.16;;;20.97;100.00
48668;BME280;34453;52.198;5.004;2022-08-11T06:55:35;102447.94;;;21.08;100.00
48668;BME280;34453;52.198;5.004;2022-08-11T06:58:27;102440.09;;;21.15;100.00
48668;BME280;34453;52.198;5.004;2022-08-11T07:01:15;102433.88;;;21.22;100.00
48668;BME280;34453;52.198;5.004;2022-08-11T07:03:47;102432.38;;;21.28;100.00
48668;BME280;34453;52.198;5.004;2022-08-11T07:07:00;102429.16;;;21.41;100.00
48668;BME280;34453;52.198;5.004;2022-08-11T07:10:22;102430.28;;;21.55;100.00
48668;BME280;34453;52.198;5.004;2022-08-11T07:13:13;102430.22;;;21.63;100.00
48668;BME280;34453;52.198;5.004;2022-08-11T07:15:59;102430.81;;;21.73;100.00
48668;BME280;34453;52.198;5.004;2022-08-11T07:18:28;102438.41;;;21.84;100.00
48668;BME280;34453;52.198;5.004;2022-08-11T07:21:28;102434.66;;;21.93;100.00
48668;BME280;34453;52.198;5.004;2022-08-11T07:24:19;102437.94;;;22.04;100.00
48668;BME280;34453;52.198;5.004;2022-08-11T07:27:08;102430.22;;;22.09;100.00
48668;BME280;34453;52.198;5.004;2022-08-11T07:29:54;102423.13;;;22.24;100.00
48668;BME280;34453;52.198;5.004;2022-08-11T07:32:28;102423.72;;;22.34;100.00
48668;BME280;34453;52.198;5.004;2022-08-11T07:35:23;102418.50;;;22.41;100.00
48668;BME280;34453;52.198;5.004;2022-08-11T07:37:56;102425.56;;;22.49;100.00
48668;BME280;34453;52.198;5.004;2022-08-11T07:40:23;102419.13;;;22.58;100.00
48668;BME280;34453;52.198;5.004;2022-08-11T07:42:50;102428.06;;;22.65;100.00
48668;BME280;34453;52.198;5.004;2022-08-11T07:45:17;102419.25;;;22.80;100.00
48668;BME280;34453;52.198;5.004;2022-08-11T07:50:46;102416.72;;;23.01;100.00
48668;BME280;34453;52.198;5.004;2022-08-11T07:53:32;102417.88;;;23.13;100.00
48668;BME280;34453;52.198;5.004;2022-08-11T07:56:00;102423.38;;;23.27;100.00
48668;BME280;34453;52.198;5.004;2022-08-11T07:58:27;102415.63;;;23.32;100.00
48668;BME280;34453;52.198;5.004;2022-08-11T08:01:18;102419.00;;;23.41;100.00
48668;BME280;34453;52.198;5.004;2022-08-11T08:04:05;102413.75;;;23.47;100.00
48668;BME280;34453;52.198;5.004;2022-08-11T08:06:49;102419.28;;;23.67;100.00
48668;BME280;34453;52.198;5.004;2022-08-11T08:09:34;102409.59;;;23.81;100.00
48668;BME280;34453;52.198;5.004;2022-08-11T08:12:23;102415.06;;;23.94;100.00
48668;BME280;34453;52.198;5.004;2022-08-11T08:15:10;102416.19;;;24.07;100.00
48668;BME280;34453;52.198;5.004;2022-08-11T08:17:56;102414.09;;;24.24;100.00
48668;BME280;34453;52.198;5.004;2022-08-11T08:20:32;102423.41;;;24.34;100.00
48668;BME280;34453;52.198;5.004;2022-08-11T08:23:00;102424.53;;;24.47;100.00
48668;BME280;34453;52.198;5.004;2022-08-11T08:25:28;102420.28;;;24.52;100.00
48668;BME280;34453;52.198;5.004;2022-08-11T08:27:55;102423.88;;;24.66;100.00
48668;BME280;34453;52.198;5.004;2022-08-11T08:30:21;102415.28;;;24.77;100.00
48668;BME280;34453;52.198;5.004;2022-08-11T08:33:07;102416.59;;;24.88;100.00
48668;BME280;34453;52.198;5.004;2022-08-11T08:35:35;102413.34;;;24.99;100.00
48668;BME280;34453;52.198;5.004;2022-08-11T08:38:02;102421.00;;;25.09;100.00
48668;BME280;34453;52.198;5.004;2022-08-11T08:40:27;102415.47;;;25.17;100.00
48668;BME280;34453;52.198;5.004;2022-08-11T08:42:58;102412.03;;;25.30;100.00
48668;BME280;34453;52.198;5.004;2022-08-11T08:45:28;102413.50;;;25.33;100.00
48668;BME280;34453;52.198;5.004;2022-08-11T08:47:58;102409.41;;;25.50;100.00
48668;BME280;34453;52.198;5.004;2022-08-11T08:50:27;102406.53;;;25.58;100.00
48668;BME280;34453;52.198;5.004;2022-08-11T08:53:19;102406.16;;;25.75;100.00
48668;BME280;34453;52.198;5.004;2022-08-11T08:55:46;102415.88;;;25.89;100.00
48668;BME280;34453;52.198;5.004;2022-08-11T08:58:14;102408.66;;;25.96;100.00
48668;BME280;34453;52.198;5.004;2022-08-11T09:00:43;102410.09;;;26.19;100.00
48668;BME280;34453;52.198;5.004;2022-08-11T09:03:10;102404.72;;;26.32;100.00
48668;BME280;34453;52.198;5.004;2022-08-11T09:05:37;102397.25;;;26.47;100.00
48668;BME280;34453;52.198;5.004;2022-08-11T09:08:03;102401.78;;;26.67;100.00
48668;BME280;34453;52.198;5.004;2022-08-11T09:10:30;102409.81;;;26.74;100.00
48668;BME280;34453;52.198;5.004;2022-08-11T09:12:58;102407.75;;;26.82;100.00
48668;BME280;34453;52.198;5.004;2022-08-11T09:15:25;102405.22;;;26.87;100.00
48668;BME280;34453;52.198;5.004;2022-08-11T09:17:56;102402.31;;;26.96;100.00
48668;BME280;34453;52.198;5.004;2022-08-11T09:20:29;102404.09;;;27.15;100.00
48668;BME280;34453;52.198;5.004;2022-08-11T09:23:01;102392.09;;;27.24;100.00
48668;BME280;34453;52.198;5.004;2022-08-11T09:25:49;102390.09;;;27.45;100.00
48668;BME280;34453;52.198;5.004;2022-08-11T09:28:34;102401.22;;;27.55;100.00
48668;BME280;34453;52.198;5.004;2022-08-11T09:31:01;102393.66;;;27.70;100.00
48668;BME280;34453;52.198;5.004;2022-08-11T09:33:29;102396.03;;;27.85;100.00
48668;BME280;34453;52.198;5.004;2022-08-11T09:35:56;102393.03;;;28.00;100.00
48668;BME280;34453;52.198;5.004;2022-08-11T09:38:25;102381.81;;;28.03;100.00
48668;BME280;34453;52.198;5.004;2022-08-11T09:41:11;102387.53;;;28.14;100.00
48668;BME280;34453;52.198;5.004;2022-08-11T09:43:45;102377.44;;;28.27;100.00
48668;BME280;34453;52.198;5.004;2022-08-11T09:46:30;102377.09;;;28.42;100.00
48668;BME280;34453;52.198;5.004;2022-08-11T09:48:58;102385.06;;;28.56;100.00
48668;BME280;34453;52.198;5.004;2022-08-11T09:51:29;102384.00;;;28.75;100.00
48668;BME280;34453;52.198;5.004;2022-08-11T09:53:58;102381.84;;;28.84;100.00
48668;BME280;34453;52.198;5.004;2022-08-11T09:56:25;102381.28;;;28.93;100.00
48668;BME280;34453;52.198;5.004;2022-08-11T09:59:09;102379.91;;;29.03;100.00
48668;BME280;34453;52.198;5.004;2022-08-11T10:01:47;102384.94;;;29.18;100.00
48668;BME280;34453;52.198;5.004;2022-08-11T10:04:16;102378.84;;;29.22;100.00
48668;BME280;34453;52.198;5.004;2022-08-11T10:06:44;102372.47;;;29.35;100.00
48668;BME280;34453;52.198;5.004;2022-08-11T10:09:51;102372.34;;;29.42;100.00
48668;BME280;34453;52.198;5.004;2022-08-11T10:14:53;102373.69;;;29.63;100.00
48668;BME280;34453;52.198;5.004;2022-08-11T10:17:42;102362.81;;;29.69;100.00
48668;BME280;34453;52.198;5.004;2022-08-11T10:20:33;102365.41;;;29.88;100.00
48668;BME280;34453;52.198;5.004;2022-08-11T10:23:00;102365.28;;;29.94;100.00
48668;BME280;34453;52.198;5.004;2022-08-11T10:25:45;102355.09;;;30.08;100.00
48668;BME280;34453;52.198;5.004;2022-08-11T10:28:30;102358.09;;;30.24;100.00
48668;BME280;34453;52.198;5.004;2022-08-11T10:30:58;102349.78;;;30.25;100.00
48668;BME280;34453;52.198;5.004;2022-08-11T10:33:44;102355.19;;;30.25;100.00
48668;BME280;34453;52.198;5.004;2022-08-11T10:36:40;102352.72;;;30.47;100.00
48668;BME280;34453;52.198;5.004;2022-08-11T10:39:27;102340.97;;;30.53;100.00
48668;BME280;34453;52.198;5.004;2022-08-11T10:41:54;102344.44;;;30.66;100.00
48668;BME280;34453;52.198;5.004;2022-08-11T10:44:45;102346.19;;;30.72;100.00
48668;BME280;34453;52.198;5.004;2022-08-11T10:47:13;102356.25;;;30.76;100.00
48668;BME280;34453;52.198;5.004;2022-08-11T10:49:58;102343.22;;;30.85;100.00
48668;BME280;34453;52.198;5.004;2022-08-11T10:52:48;102348.81;;;30.84;100.00
48668;BME280;34453;52.198;5.004;2022-08-11T10:55:34;102337.34;;;30.88;100.00
48668;BME280;34453;52.198;5.004;2022-08-11T10:58:20;102332.31;;;31.09;100.00
48668;BME280;34453;52.198;5.004;2022-08-11T11:01:05;102332.44;;;31.31;100.00
48668;BME280;34453;52.198;5.004;2022-08-11T11:03:32;102333.72;;;31.11;100.00
48668;BME280;34453;52.198;5.004;2022-08-11T11:11:48;102326.00;;;31.49;100.00
48668;BME280;34453;52.198;5.004;2022-08-11T11:14:35;102323.53;;;31.64;100.00
48668;BME280;34453;52.198;5.004;2022-08-11T11:17:57;102323.69;;;31.57;100.00
48668;BME280;34453;52.198;5.004;2022-08-11T11:23:22;102322.16;;;32.00;100.00
48668;BME280;34453;52.198;5.004;2022-08-11T11:37:09;102317.44;;;32.52;100.00
48668;BME280;34453;52.198;5.004;2022-08-11T11:39:37;102308.66;;;32.67;100.00
48668;BME280;34453;52.198;5.004;2022-08-11T11:42:08;102315.56;;;32.79;100.00
48668;BME280;34453;52.198;5.004;2022-08-11T11:44:36;102304.09;;;32.72;100.00
48668;BME280;34453;52.198;5.004;2022-08-11T11:47:03;102312.63;;;32.86;100.00
48668;BME280;34453;52.198;5.004;2022-08-11T11:49:30;102314.81;;;32.84;100.00
48668;BME280;34453;52.198;5.004;2022-08-11T11:51:58;102312.28;;;33.04;100.00
48668;BME280;34453;52.198;5.004;2022-08-11T11:54:27;102306.59;;;32.79;88.86
48668;BME280;34453;52.198;5.004;2022-08-11T11:56:55;102300.06;;;33.02;97.05
48668;BME280;34453;52.198;5.004;2022-08-11T11:59:24;102305.56;;;32.36;87.77
48668;BME280;34453;52.198;5.004;2022-08-11T12:02:13;102304.06;;;32.99;95.91
48668;BME280;34453;52.198;5.004;2022-08-11T12:04:40;102298.63;;;32.94;99.41
48668;BME280;34453;52.198;5.004;2022-08-11T12:07:08;102294.00;;;32.95;91.42
48668;BME280;34453;52.198;5.004;2022-08-11T12:09:54;102285.38;;;33.30;100.00
48668;BME280;34453;52.198;5.004;2022-08-11T12:12:21;102286.06;;;33.48;94.46
48668;BME280;34453;52.198;5.004;2022-08-11T12:15:06;102281.06;;;33.67;100.00
48668;BME280;34453;52.198;5.004;2022-08-11T12:17:34;102276.22;;;33.74;93.18
48668;BME280;34453;52.198;5.004;2022-08-11T12:20:01;102280.31;;;33.76;nan
48668;BME280;34453;52.198;5.004;2022-08-11T12:22:28;102267.38;;;33.94;93.70
48668;BME280;34453;52.198;5.004;2022-08-11T12:25:12;102267.84;;;33.80;80.62
48668;BME280;34453;52.198;5.004;2022-08-11T12:27:57;102268.44;;;33.93;76.87
48668;BME280;34453;52.198;5.004;2022-08-11T12:30:23;102261.13;;;33.93;70.54
48668;BME280;34453;52.198;5.004;2022-08-11T12:32:49;102265.75;;;33.98;79.48
48668;BME280;34453;52.198;5.004;2022-08-11T12:35:15;102252.28;;;34.23;81.70
48668;BME280;34453;52.198;5.004;2022-08-11T12:37:46;102263.19;;;34.39;79.86
48668;BME280;34453;52.198;5.004;2022-08-11T12:40:14;102258.34;;;34.51;82.85
48668;BME280;34453;52.198;5.004;2022-08-11T12:43:02;102261.59;;;34.43;79.03
48668;BME280;34453;52.198;5.004;2022-08-11T12:45:49;102247.47;;;34.56;83.62
48668;BME280;34453;52.198;5.004;2022-08-11T12:48:19;102248.03;;;34.53;85.18
48668;BME280;34453;52.198;5.004;2022-08-11T12:51:08;102240.41;;;34.50;84.66
48668;BME280;34453;52.198;5.004;2022-08-11T12:54:11;102243.41;;;34.49;92.41
48668;BME280;34453;52.198;5.004;2022-08-11T12:56:44;102241.25;;;34.66;97.26
48668;BME280;34453;52.198;5.004;2022-08-11T12:59:30;102232.88;;;34.78;99.88
48668;BME280;34453;52.198;5.004;2022-08-11T13:02:16;102235.56;;;34.62;97.19
48668;BME280;34453;52.198;5.004;2022-08-11T13:05:03;102237.13;;;34.43;100.00
48668;BME280;34453;52.198;5.004;2022-08-11T13:07:30;102233.53;;;34.17;100.00
48668;BME280;34453;52.198;5.004;2022-08-11T13:10:01;102233.88;;;34.36;100.00
48668;BME280;34453;52.198;5.004;2022-08-11T13:12:28;102232.16;;;34.14;97.58
48668;BME280;34453;52.198;5.004;2022-08-11T13:15:24;102237.09;;;34.22;98.60
48668;BME280;34453;52.198;5.004;2022-08-11T13:17:51;102219.47;;;34.45;100.00
48668;BME280;34453;52.198;5.004;2022-08-11T13:20:21;102216.19;;;34.28;99.28
48668;BME280;34453;52.198;5.004;2022-08-11T13:22:49;102216.19;;;34.23;96.30
48668;BME280;34453;52.198;5.004;2022-08-11T13:25:16;102216.34;;;34.06;100.00
48668;BME280;34453;52.198;5.004;2022-08-11T13:27:46;102216.34;;;33.96;100.00
48668;BME280;34453;52.198;5.004;2022-08-11T13:30:16;102213.78;;;34.42;96.23
48668;BME280;34453;52.198;5.004;2022-08-11T13:33:02;102224.13;;;34.60;94.93
48668;BME280;34453;52.198;5.004;2022-08-11T13:35:30;102216.50;;;34.57;96.68
48668;BME280;34453;52.198;5.004;2022-08-11T13:37:58;102211.56;;;34.23;93.03
48668;BME280;34453;52.198;5.004;2022-08-11T13:40:26;102215.63;;;34.26;95.92
48668;BME280;34453;52.198;5.004;2022-08-11T13:42:53;102211.19;;;33.99;91.91
48668;BME280;34453;52.198;5.004;2022-08-11T13:45:21;102210.66;;;34.08;95.02
48668;BME280;34453;52.198;5.004;2022-08-11T13:47:49;102213.16;;;34.19;99.31
48668;BME280;34453;52.198;5.004;2022-08-11T13:50:16;102213.50;;;34.38;99.26
48668;BME280;34453;52.198;5.004;2022-08-11T13:52:43;102203.19;;;34.45;97.01
48668;BME280;34453;52.198;5.004;2022-08-11T13:55:11;102206.97;;;34.34;95.19
48668;BME280;34453;52.198;5.004;2022-08-11T13:57:52;102202.22;;;33.94;93.81
48668;BME280;34453;52.198;5.004;2022-08-11T14:00:19;102201.06;;;33.74;92.33
48668;BME280;34453;52.198;5.004;2022-08-11T14:02:47;102189.63;;;33.62;95.23
48668;BME280;34453;52.198;5.004;2022-08-11T14:05:16;102190.19;;;33.69;95.99
48668;BME280;34453;52.198;5.004;2022-08-11T14:07:48;102194.19;;;33.61;92.64
48668;BME280;34453;52.198;5.004;2022-08-11T14:10:17;102191.69;;;33.50;93.83
48668;BME280;34453;52.198;5.004;2022-08-11T14:12:49;102186.16;;;33.29;94.30
48668;BME280;34453;52.198;5.004;2022-08-11T14:15:40;102183.34;;;33.61;93.29
48668;BME280;34453;52.198;5.004;2022-08-11T14:18:10;102184.78;;;33.74;92.25
48668;BME280;34453;52.198;5.004;2022-08-11T14:20:39;102180.28;;;33.48;89.60
48668;BME280;34453;52.198;5.004;2022-08-11T14:23:31;102177.47;;;33.32;93.54
48668;BME280;34453;52.198;5.004;2022-08-11T14:25:57;102179.16;;;33.38;93.70
48668;BME280;34453;52.198;5.004;2022-08-11T14:28:43;102175.41;;;33.55;92.70
48668;BME280;34453;52.198;5.004;2022-08-11T14:31:09;102174.47;;;33.76;90.88
48668;BME280;34453;52.198;5.004;2022-08-11T14:33:36;102170.28;;;33.53;93.44
48668;BME280;34453;52.198;5.004;2022-08-11T14:36:02;102168.97;;;33.61;95.84
48668;BME280;34453;52.198;5.004;2022-08-11T14:38:32;102166.03;;;33.73;93.93
48668;BME280;34453;52.198;5.004;2022-08-11T14:40:58;102157.31;;;33.65;89.88
48668;BME280;34453;52.198;5.004;2022-08-11T14:43:42;102161.16;;;33.75;90.98
48668;BME280;34453;52.198;5.004;2022-08-11T14:46:28;102156.06;;;33.99;91.71
48668;BME280;34453;52.198;5.004;2022-08-11T14:49:13;102153.88;;;33.80;91.68
48668;BME280;34453;52.198;5.004;2022-08-11T14:51:40;102159.84;;;33.88;95.88
48668;BME280;34453;52.198;5.004;2022-08-11T14:54:07;102157.78;;;34.20;94.88
48668;BME280;34453;52.198;5.004;2022-08-11T14:56:52;102154.53;;;34.18;91.65
48668;BME280;34453;52.198;5.004;2022-08-11T14:59:19;102152.25;;;33.95;92.07
48668;BME280;34453;52.198;5.004;2022-08-11T15:01:45;102152.31;;;34.10;95.38
48668;BME280;34453;52.198;5.004;2022-08-11T15:04:29;102154.28;;;34.25;97.17
48668;BME280;34453;52.198;5.004;2022-08-11T15:06:56;102142.53;;;34.04;96.26
48668;BME280;34453;52.198;5.004;2022-08-11T15:09:22;102140.13;;;34.13;94.37
48668;BME280;34453;52.198;5.004;2022-08-11T15:11:48;102136.63;;;34.22;98.28
48668;BME280;34453;52.198;5.004;2022-08-11T15:14:32;102142.59;;;34.35;95.18
48668;BME280;34453;52.198;5.004;2022-08-11T15:17:16;102131.72;;;34.14;99.18
48668;BME280;34453;52.198;5.004;2022-08-11T15:19:43;102135.41;;;33.88;94.80
48668;BME280;34453;52.198;5.004;2022-08-11T15:22:28;102130.84;;;33.98;95.02
48668;BME280;34453;52.198;5.004;2022-08-11T15:25:15;102127.78;;;33.79;92.83
48668;BME280;34453;52.198;5.004;2022-08-11T15:27:46;102135.34;;;33.62;97.08
48668;BME280;34453;52.198;5.004;2022-08-11T15:30:33;102123.38;;;33.58;94.45
48668;BME280;34453;52.198;5.004;2022-08-11T15:33:18;102126.41;;;33.67;98.65
48668;BME280;34453;52.198;5.004;2022-08-11T15:36:06;102121.72;;;33.57;95.35
48668;BME280;34453;52.198;5.004;2022-08-11T15:39:18;102116.94;;;33.74;95.21
48668;BME280;34453;52.198;5.004;2022-08-11T15:41:58;102114.13;;;33.54;96.12
48668;BME280;34453;52.198;5.004;2022-08-11T15:44:49;102114.47;;;33.73;98.13
48668;BME280;34453;52.198;5.004;2022-08-11T15:47:45;102116.38;;;33.62;96.36
48668;BME280;34453;52.198;5.004;2022-08-11T15:50:16;102106.00;;;33.54;98.02
48668;BME280;34453;52.198;5.004;2022-08-11T15:52:57;102112.00;;;33.61;100.00
48668;BME280;34453;52.198;5.004;2022-08-11T15:55:24;102103.94;;;33.87;92.51
48668;BME280;34453;52.198;5.004;2022-08-11T15:57:52;102106.13;;;33.84;95.71
48668;BME280;34453;52.198;5.004;2022-08-11T16:00:38;102104.41;;;33.63;99.44
48668;BME280;34453;52.198;5.004;2022-08-11T16:03:24;102100.91;;;33.73;96.70
48668;BME280;34453;52.198;5.004;2022-08-11T16:06:10;102098.91;;;33.42;97.58
48668;BME280;34453;52.198;5.004;2022-08-11T16:08:39;102094.13;;;33.70;100.00
48668;BME280;34453;52.198;5.004;2022-08-11T16:11:07;102104.72;;;33.67;100.00
48668;BME280;34453;52.198;5.004;2022-08-11T16:13:35;102098.44;;;33.66;99.38
48668;BME280;34453;52.198;5.004;2022-08-11T16:16:02;102091.53;;;34.16;98.65
48668;BME280;34453;52.198;5.004;2022-08-11T16:18:43;102090.16;;;34.55;100.00
48668;BME280;34453;52.198;5.004;2022-08-11T16:21:20;102089.91;;;34.51;97.63
48668;BME280;34453;52.198;5.004;2022-08-11T16:23:49;102085.84;;;34.18;95.61
48668;BME280;34453;52.198;5.004;2022-08-11T16:26:19;102079.31;;;34.34;98.85
48668;BME280;34453;52.198;5.004;2022-08-11T16:28:54;102083.38;;;34.37;95.88
48668;BME280;34453;52.198;5.004;2022-08-11T16:31:22;102073.06;;;34.13;97.81
48668;BME280;34453;52.198;5.004;2022-08-11T16:33:50;102084.75;;;34.44;98.80